sensor_id;sensor_type;location;lat;lon;timestamp;temperature;humidity
22337;DHT22;14992;50.844;4.418;2023-12-20T00:00:37;7.50;99.90
22337;DHT22;14992;50.844;4.418;2023-12-20T00:03:06;7.50;99.90
22337;DHT22;14992;50.844;4.418;2023-12-20T00:05:35;7.40;99.90
22337;DHT22;14992;50.844;4.418;2023-12-20T00:08:06;7.40;99.90
22337;DHT22;14992;50.844;4.418;2023-12-20T00:10:36;7.40;99.90
22337;DHT22;14992;50.844;4.418;2023-12-20T00:13:05;7.40;99.90
22337;DHT22;14992;50.844;4.418;2023-12-20T00:15:35;7.40;99.90
22337;DHT22;14992;50.844;4.418;2023-12-20T00:18:04;7.50;99.90
22337;DHT22;14992;50.844;4.418;2023-12-20T00:20:33;7.50;99.90
22337;DHT22;14992;50.844;4.418;2023-12-20T00:23:02;7.50;99.90
22337;DHT22;14992;50.844;4.418;2023-12-20T00:25:36;7.40;99.90
22337;DHT22;14992;50.844;4.418;2023-12-20T00:28:05;7.40;99.90
22337;DHT22;14992;50.844;4.418;2023-12-20T00:30:34;7.30;99.90
22337;DHT22;14992;50.844;4.418;2023-12-20T00:33:04;7.30;99.90
22337;DHT22;14992;50.844;4.418;2023-12-20T00:35:33;7.30;99.90
22337;DHT22;14992;50.844;4.418;2023-12-20T00:38:02;7.20;99.90
22337;DHT22;14992;50.844;4.418;2023-12-20T00:40:32;7.30;99.90
22337;DHT22;14992;50.844;4.418;2023-12-20T00:43:03;7.20;99.90
22337;DHT22;14992;50.844;4.418;2023-12-20T00:45:32;7.20;99.90
22337;DHT22;14992;50.844;4.418;2023-12-20T00:48:01;7.20;99.90
22337;DHT22;14992;50.844;4.418;2023-12-20T00:50:30;7.10;99.90
22337;DHT22;14992;50.844;4.418;2023-12-20T00:52:58;7.10;99.90
22337;DHT22;14992;50.844;4.418;2023-12-20T00:55:27;7.10;99.90
22337;DHT22;14992;50.844;4.418;2023-12-20T00:57:56;7.10;99.90
22337;DHT22;14992;50.844;4.418;2023-12-20T01:00:28;7.10;99.90
22337;DHT22;14992;50.844;4.418;2023-12-20T01:02:59;7.00;99.90
22337;DHT22;14992;50.844;4.418;2023-12-20T01:05:28;7.00;99.90
22337;DHT22;14992;50.844;4.418;2023-12-20T01:07:57;7.00;99.90
22337;DHT22;14992;50.844;4.418;2023-12-20T01:10:26;7.00;99.90
22337;DHT22;14992;50.844;4.418;2023-12-20T01:12:55;7.00;99.90
22337;DHT22;14992;50.844;4.418;2023-12-20T01:15:24;7.00;99.90
22337;DHT22;14992;50.844;4.418;2023-12-20T01:17:54;7.00;99.90
22337;DHT22;14992;50.844;4.418;2023-12-20T01:20:24;6.90;99.90
22337;DHT22;14992;50.844;4.418;2023-12-20T01:22:53;6.90;99.90
22337;DHT22;14992;50.844;4.418;2023-12-20T01:25:22;6.90;99.90
22337;DHT22;14992;50.844;4.418;2023-12-20T01:27:51;6.90;99.90
22337;DHT22;14992;50.844;4.418;2023-12-20T01:30:20;6.90;99.90
22337;DHT22;14992;50.844;4.418;2023-12-20T01:32:49;6.90;99.90
22337;DHT22;14992;50.844;4.418;2023-12-20T01:35:19;6.90;99.90
22337;DHT22;14992;50.844;4.418;2023-12-20T01:37:48;6.80;99.90
22337;DHT22;14992;50.844;4.418;2023-12-20T01:40:19;6.80;99.90
22337;DHT22;14992;50.844;4.418;2023-12-20T01:42:58;6.80;99.90
22337;DHT22;14992;50.844;4.418;2023-12-20T01:45:27;6.80;99.90
22337;DHT22;14992;50.844;4.418;2023-12-20T01:47:57;6.90;99.90
22337;DHT22;14992;50.844;4.418;2023-12-20T01:50:28;6.90;99.90
22337;DHT22;14992;50.844;4.418;2023-12-20T01:52:59;6.90;99.90
22337;DHT22;14992;50.844;4.418;2023-12-20T01:55:31;6.90;99.90
22337;DHT22;14992;50.844;4.418;2023-12-20T01:58:00;6.90;99.90
22337;DHT22;14992;50.844;4.418;2023-12-20T02:00:30;7.00;99.90
22337;DHT22;14992;50.844;4.418;2023-12-20T02:03:01;7.00;99.90
22337;DHT22;14992;50.844;4.418;2023-12-20T02:05:34;7.00;99.90
22337;DHT22;14992;50.844;4.418;2023-12-20T02:08:04;7.10;99.90
22337;DHT22;14992;50.844;4.418;2023-12-20T02:10:35;7.10;99.90
22337;DHT22;14992;50.844;4.418;2023-12-20T02:13:04;7.10;99.90
22337;DHT22;14992;50.844;4.418;2023-12-20T02:15:33;7.00;99.90
22337;DHT22;14992;50.844;4.418;2023-12-20T02:18:04;7.00;99.90
22337;DHT22;14992;50.844;4.418;2023-12-20T02:20:35;6.90;99.90
22337;DHT22;14992;50.844;4.418;2023-12-20T02:23:05;6.90;99.90
22337;DHT22;14992;50.844;4.418;2023-12-20T02:25:34;6.80;99.90
22337;DHT22;14992;50.844;4.418;2023-12-20T02:28:04;6.80;99.90
22337;DHT22;14992;50.844;4.418;2023-12-20T02:30:34;6.80;99.90
22337;DHT22;14992;50.844;4.418;2023-12-20T02:33:04;6.80;99.90
22337;DHT22;14992;50.844;4.418;2023-12-20T02:35:36;6.70;99.90
22337;DHT22;14992;50.844;4.418;2023-12-20T02:38:06;6.80;99.90
22337;DHT22;14992;50.844;4.418;2023-12-20T02:40:35;6.80;99.90
22337;DHT22;14992;50.844;4.418;2023-12-20T02:43:04;6.90;99.90
22337;DHT22;14992;50.844;4.418;2023-12-20T02:45:33;6.90;99.90
22337;DHT22;14992;50.844;4.418;2023-12-20T02:48:02;6.90;99.90
22337;DHT22;14992;50.844;4.418;2023-12-20T02:50:31;6.90;99.90
22337;DHT22;14992;50.844;4.418;2023-12-20T02:53:00;6.90;99.90
22337;DHT22;14992;50.844;4.418;2023-12-20T02:55:30;6.90;99.90
22337;DHT22;14992;50.844;4.418;2023-12-20T02:57:59;6.90;99.90
22337;DHT22;14992;50.844;4.418;2023-12-20T03:00:28;6.80;99.90
22337;DHT22;14992;50.844;4.418;2023-12-20T03:02:57;6.70;99.90
22337;DHT22;14992;50.844;4.418;2023-12-20T03:05:27;6.70;99.90
22337;DHT22;14992;50.844;4.418;2023-12-20T03:07:56;6.70;99.90
22337;DHT22;14992;50.844;4.418;2023-12-20T03:10:25;6.80;99.90
22337;DHT22;14992;50.844;4.418;2023-12-20T03:12:57;6.90;99.90
22337;DHT22;14992;50.844;4.418;2023-12-20T03:15:26;6.90;99.90
22337;DHT22;14992;50.844;4.418;2023-12-20T03:17:54;7.00;99.90
22337;DHT22;14992;50.844;4.418;2023-12-20T03:20:23;7.00;99.90
22337;DHT22;14992;50.844;4.418;2023-12-20T03:22:53;7.00;99.90
22337;DHT22;14992;50.844;4.418;2023-12-20T03:25:22;7.00;99.90
22337;DHT22;14992;50.844;4.418;2023-12-20T03:27:51;7.00;99.90
22337;DHT22;14992;50.844;4.418;2023-12-20T03:30:22;7.00;99.90
22337;DHT22;14992;50.844;4.418;2023-12-20T03:32:51;7.00;99.90
22337;DHT22;14992;50.844;4.418;2023-12-20T03:35:20;6.90;99.90
22337;DHT22;14992;50.844;4.418;2023-12-20T03:37:50;7.00;99.90
22337;DHT22;14992;50.844;4.418;2023-12-20T03:40:18;7.10;99.90
22337;DHT22;14992;50.844;4.418;2023-12-20T03:42:47;7.10;99.90
22337;DHT22;14992;50.844;4.418;2023-12-20T03:45:16;7.10;99.90
22337;DHT22;14992;50.844;4.418;2023-12-20T03:47:47;7.10;99.90
22337;DHT22;14992;50.844;4.418;2023-12-20T03:50:16;7.10;99.90
22337;DHT22;14992;50.844;4.418;2023-12-20T03:52:45;7.00;99.90
22337;DHT22;14992;50.844;4.418;2023-12-20T03:55:16;7.00;99.90
22337;DHT22;14992;50.844;4.418;2023-12-20T03:57:45;7.00;99.90
22337;DHT22;14992;50.844;4.418;2023-12-20T04:00:14;7.10;99.90
22337;DHT22;14992;50.844;4.418;2023-12-20T04:02:43;7.20;99.90
22337;DHT22;14992;50.844;4.418;2023-12-20T04:05:14;7.30;99.90
22337;DHT22;14992;50.844;4.418;2023-12-20T04:07:43;7.40;99.90
22337;DHT22;14992;50.844;4.418;2023-12-20T04:10:12;7.50;99.90
22337;DHT22;14992;50.844;4.418;2023-12-20T04:12:41;7.40;99.90
22337;DHT22;14992;50.844;4.418;2023-12-20T04:15:10;7.40;99.90
22337;DHT22;14992;50.844;4.418;2023-12-20T04:17:39;7.30;99.90
22337;DHT22;14992;50.844;4.418;2023-12-20T04:20:09;7.30;99.90
22337;DHT22;14992;50.844;4.418;2023-12-20T04:22:39;7.30;99.90
22337;DHT22;14992;50.844;4.418;2023-12-20T04:25:08;7.20;99.90
22337;DHT22;14992;50.844;4.418;2023-12-20T04:27:37;7.10;99.90
22337;DHT22;14992;50.844;4.418;2023-12-20T04:30:07;7.10;99.90
22337;DHT22;14992;50.844;4.418;2023-12-20T04:32:36;7.10;99.90
22337;DHT22;14992;50.844;4.418;2023-12-20T04:35:06;7.10;99.90
22337;DHT22;14992;50.844;4.418;2023-12-20T04:37:36;7.00;99.90
22337;DHT22;14992;50.844;4.418;2023-12-20T04:40:07;7.00;99.90
22337;DHT22;14992;50.844;4.418;2023-12-20T04:42:36;7.00;99.90
22337;DHT22;14992;50.844;4.418;2023-12-20T04:45:06;7.00;99.90
22337;DHT22;14992;50.844;4.418;2023-12-20T04:47:35;7.00;99.90
22337;DHT22;14992;50.844;4.418;2023-12-20T04:50:05;7.10;99.90
22337;DHT22;14992;50.844;4.418;2023-12-20T04:52:34;7.10;99.90
22337;DHT22;14992;50.844;4.418;2023-12-20T04:55:03;7.10;99.90
22337;DHT22;14992;50.844;4.418;2023-12-20T04:57:34;7.10;99.90
22337;DHT22;14992;50.844;4.418;2023-12-20T05:00:03;7.00;99.90
22337;DHT22;14992;50.844;4.418;2023-12-20T05:02:33;7.10;99.90
22337;DHT22;14992;50.844;4.418;2023-12-20T05:05:01;7.20;99.90
22337;DHT22;14992;50.844;4.418;2023-12-20T05:07:30;7.20;99.90
22337;DHT22;14992;50.844;4.418;2023-12-20T05:09:59;7.20;99.90
22337;DHT22;14992;50.844;4.418;2023-12-20T05:12:28;7.20;99.90
22337;DHT22;14992;50.844;4.418;2023-12-20T05:14:58;7.20;99.90
22337;DHT22;14992;50.844;4.418;2023-12-20T05:17:27;7.30;99.90
22337;DHT22;14992;50.844;4.418;2023-12-20T05:19:56;7.30;99.90
22337;DHT22;14992;50.844;4.418;2023-12-20T05:22:25;7.30;99.90
22337;DHT22;14992;50.844;4.418;2023-12-20T05:24:55;7.20;99.90
22337;DHT22;14992;50.844;4.418;2023-12-20T05:27:23;7.20;99.90
22337;DHT22;14992;50.844;4.418;2023-12-20T05:29:52;7.10;99.90
22337;DHT22;14992;50.844;4.418;2023-12-20T05:32:26;7.00;99.90
22337;DHT22;14992;50.844;4.418;2023-12-20T05:34:55;7.00;99.90
22337;DHT22;14992;50.844;4.418;2023-12-20T05:37:24;7.00;99.90
22337;DHT22;14992;50.844;4.418;2023-12-20T05:39:53;6.90;99.90
22337;DHT22;14992;50.844;4.418;2023-12-20T05:42:22;6.90;99.90
22337;DHT22;14992;50.844;4.418;2023-12-20T05:44:50;6.90;99.90
22337;DHT22;14992;50.844;4.418;2023-12-20T05:47:22;6.90;99.90
22337;DHT22;14992;50.844;4.418;2023-12-20T05:49:53;6.90;99.90
22337;DHT22;14992;50.844;4.418;2023-12-20T05:52:22;6.90;99.90
22337;DHT22;14992;50.844;4.418;2023-12-20T05:54:51;6.80;99.90
22337;DHT22;14992;50.844;4.418;2023-12-20T05:57:20;6.80;99.90
22337;DHT22;14992;50.844;4.418;2023-12-20T05:59:48;6.80;99.90
22337;DHT22;14992;50.844;4.418;2023-12-20T06:02:17;6.80;99.90
22337;DHT22;14992;50.844;4.418;2023-12-20T06:04:46;6.90;99.90
22337;DHT22;14992;50.844;4.418;2023-12-20T06:07:16;6.80;99.90
22337;DHT22;14992;50.844;4.418;2023-12-20T06:09:45;6.70;99.90
22337;DHT22;14992;50.844;4.418;2023-12-20T06:12:14;6.80;99.90
22337;DHT22;14992;50.844;4.418;2023-12-20T06:14:43;6.70;99.90
22337;DHT22;14992;50.844;4.418;2023-12-20T06:17:12;6.80;99.90
22337;DHT22;14992;50.844;4.418;2023-12-20T06:19:41;6.90;99.90
22337;DHT22;14992;50.844;4.418;2023-12-20T06:22:12;6.90;99.90
22337;DHT22;14992;50.844;4.418;2023-12-20T06:24:42;7.00;99.90
22337;DHT22;14992;50.844;4.418;2023-12-20T06:27:11;6.90;99.90
22337;DHT22;14992;50.844;4.418;2023-12-20T06:29:40;6.90;99.90
22337;DHT22;14992;50.844;4.418;2023-12-20T06:32:12;6.90;99.90
22337;DHT22;14992;50.844;4.418;2023-12-20T06:34:40;6.90;99.90
22337;DHT22;14992;50.844;4.418;2023-12-20T06:37:09;7.00;99.90
22337;DHT22;14992;50.844;4.418;2023-12-20T06:39:38;6.90;99.90
22337;DHT22;14992;50.844;4.418;2023-12-20T06:42:09;6.90;99.90
22337;DHT22;14992;50.844;4.418;2023-12-20T06:44:38;6.90;99.90
22337;DHT22;14992;50.844;4.418;2023-12-20T06:47:08;6.80;99.90
22337;DHT22;14992;50.844;4.418;2023-12-20T06:49:37;6.80;99.90
22337;DHT22;14992;50.844;4.418;2023-12-20T06:52:06;6.80;99.90
22337;DHT22;14992;50.844;4.418;2023-12-20T06:54:34;6.90;99.90
22337;DHT22;14992;50.844;4.418;2023-12-20T06:57:04;6.90;99.90
22337;DHT22;14992;50.844;4.418;2023-12-20T06:59:38;6.70;99.90
22337;DHT22;14992;50.844;4.418;2023-12-20T07:02:08;6.60;99.90
22337;DHT22;14992;50.844;4.418;2023-12-20T07:04:42;6.50;99.90
22337;DHT22;14992;50.844;4.418;2023-12-20T07:07:10;6.40;99.90
22337;DHT22;14992;50.844;4.418;2023-12-20T07:09:39;6.30;99.90
22337;DHT22;14992;50.844;4.418;2023-12-20T07:12:10;6.20;99.90
22337;DHT22;14992;50.844;4.418;2023-12-20T07:14:40;6.30;99.90
22337;DHT22;14992;50.844;4.418;2023-12-20T07:17:09;6.10;99.90
22337;DHT22;14992;50.844;4.418;2023-12-20T07:19:41;6.10;99.90
22337;DHT22;14992;50.844;4.418;2023-12-20T07:22:10;6.30;99.90
22337;DHT22;14992;50.844;4.418;2023-12-20T07:24:39;6.30;99.90
22337;DHT22;14992;50.844;4.418;2023-12-20T07:27:08;6.30;99.90
22337;DHT22;14992;50.844;4.418;2023-12-20T07:29:37;6.20;99.90
22337;DHT22;14992;50.844;4.418;2023-12-20T07:32:07;6.20;99.90
22337;DHT22;14992;50.844;4.418;2023-12-20T07:34:36;6.10;99.90
22337;DHT22;14992;50.844;4.418;2023-12-20T07:37:05;6.10;99.90
22337;DHT22;14992;50.844;4.418;2023-12-20T07:39:37;6.10;99.90
22337;DHT22;14992;50.844;4.418;2023-12-20T07:42:08;6.10;99.90
22337;DHT22;14992;50.844;4.418;2023-12-20T07:44:37;6.10;99.90
22337;DHT22;14992;50.844;4.418;2023-12-20T07:47:07;6.10;99.90
22337;DHT22;14992;50.844;4.418;2023-12-20T07:49:36;6.00;99.90
22337;DHT22;14992;50.844;4.418;2023-12-20T07:52:06;6.00;99.90
22337;DHT22;14992;50.844;4.418;2023-12-20T07:54:35;6.00;99.90
22337;DHT22;14992;50.844;4.418;2023-12-20T07:57:04;6.10;99.90
22337;DHT22;14992;50.844;4.418;2023-12-20T07:59:33;6.10;99.90
22337;DHT22;14992;50.844;4.418;2023-12-20T08:02:02;6.10;99.90
22337;DHT22;14992;50.844;4.418;2023-12-20T08:04:33;6.00;99.90
22337;DHT22;14992;50.844;4.418;2023-12-20T08:07:02;6.00;99.90
22337;DHT22;14992;50.844;4.418;2023-12-20T08:09:31;6.00;99.90
22337;DHT22;14992;50.844;4.418;2023-12-20T08:12:01;6.00;99.90
22337;DHT22;14992;50.844;4.418;2023-12-20T08:14:30;6.00;99.90
22337;DHT22;14992;50.844;4.418;2023-12-20T08:16:59;6.10;99.90
22337;DHT22;14992;50.844;4.418;2023-12-20T08:19:28;6.10;99.90
22337;DHT22;14992;50.844;4.418;2023-12-20T08:21:58;6.10;99.90
22337;DHT22;14992;50.844;4.418;2023-12-20T08:24:27;6.10;99.90
22337;DHT22;14992;50.844;4.418;2023-12-20T08:26:56;6.10;99.90
22337;DHT22;14992;50.844;4.418;2023-12-20T08:29:25;6.10;99.90
22337;DHT22;14992;50.844;4.418;2023-12-20T08:31:55;6.20;99.90
22337;DHT22;14992;50.844;4.418;2023-12-20T08:34:24;6.30;99.90
22337;DHT22;14992;50.844;4.418;2023-12-20T08:36:53;6.30;99.90
22337;DHT22;14992;50.844;4.418;2023-12-20T08:39:24;6.30;99.90
22337;DHT22;14992;50.844;4.418;2023-12-20T08:41:52;6.40;99.90
22337;DHT22;14992;50.844;4.418;2023-12-20T08:44:21;6.40;99.90
22337;DHT22;14992;50.844;4.418;2023-12-20T08:46:50;6.40;99.90
22337;DHT22;14992;50.844;4.418;2023-12-20T08:49:19;6.40;99.90
22337;DHT22;14992;50.844;4.418;2023-12-20T08:51:48;6.40;99.90
22337;DHT22;14992;50.844;4.418;2023-12-20T08:54:17;6.40;99.90
22337;DHT22;14992;50.844;4.418;2023-12-20T08:56:48;6.40;99.90
22337;DHT22;14992;50.844;4.418;2023-12-20T08:59:17;6.50;99.90
22337;DHT22;14992;50.844;4.418;2023-12-20T09:01:46;6.50;99.90
22337;DHT22;14992;50.844;4.418;2023-12-20T09:04:16;6.40;99.90
22337;DHT22;14992;50.844;4.418;2023-12-20T09:06:45;6.40;99.90
22337;DHT22;14992;50.844;4.418;2023-12-20T09:09:14;6.40;99.90
22337;DHT22;14992;50.844;4.418;2023-12-20T09:11:43;6.50;99.90
22337;DHT22;14992;50.844;4.418;2023-12-20T09:14:15;6.50;99.90
22337;DHT22;14992;50.844;4.418;2023-12-20T09:16:44;6.50;99.90
22337;DHT22;14992;50.844;4.418;2023-12-20T09:19:13;6.50;99.90
22337;DHT22;14992;50.844;4.418;2023-12-20T09:21:42;6.60;99.90
22337;DHT22;14992;50.844;4.418;2023-12-20T09:24:11;6.50;99.90
22337;DHT22;14992;50.844;4.418;2023-12-20T09:26:40;6.60;99.90
22337;DHT22;14992;50.844;4.418;2023-12-20T09:29:10;6.70;99.90
22337;DHT22;14992;50.844;4.418;2023-12-20T09:31:43;6.80;99.90
22337;DHT22;14992;50.844;4.418;2023-12-20T09:34:15;6.80;99.90
22337;DHT22;14992;50.844;4.418;2023-12-20T09:36:44;6.80;99.90
22337;DHT22;14992;50.844;4.418;2023-12-20T09:39:16;6.90;99.90
22337;DHT22;14992;50.844;4.418;2023-12-20T09:41:51;7.00;99.90
22337;DHT22;14992;50.844;4.418;2023-12-20T09:44:23;7.20;99.90
22337;DHT22;14992;50.844;4.418;2023-12-20T09:46:55;7.50;99.90
22337;DHT22;14992;50.844;4.418;2023-12-20T09:49:25;7.70;99.90
22337;DHT22;14992;50.844;4.418;2023-12-20T09:51:56;7.80;99.90
22337;DHT22;14992;50.844;4.418;2023-12-20T09:54:26;7.70;99.90
22337;DHT22;14992;50.844;4.418;2023-12-20T09:56:55;7.70;99.90
22337;DHT22;14992;50.844;4.418;2023-12-20T09:59:24;7.70;99.90
22337;DHT22;14992;50.844;4.418;2023-12-20T10:01:55;7.60;99.90
22337;DHT22;14992;50.844;4.418;2023-12-20T10:04:25;7.60;99.90
22337;DHT22;14992;50.844;4.418;2023-12-20T10:07:01;7.70;99.90
22337;DHT22;14992;50.844;4.418;2023-12-20T10:09:34;7.70;99.90
22337;DHT22;14992;50.844;4.418;2023-12-20T10:12:04;7.80;99.90
22337;DHT22;14992;50.844;4.418;2023-12-20T10:14:33;7.70;99.90
22337;DHT22;14992;50.844;4.418;2023-12-20T10:17:04;7.60;99.90
22337;DHT22;14992;50.844;4.418;2023-12-20T10:19:33;7.70;99.90
22337;DHT22;14992;50.844;4.418;2023-12-20T10:22:04;7.80;99.90
22337;DHT22;14992;50.844;4.418;2023-12-20T10:24:33;8.00;99.90
22337;DHT22;14992;50.844;4.418;2023-12-20T10:27:03;8.10;99.90
22337;DHT22;14992;50.844;4.418;2023-12-20T10:29:33;8.30;99.90
22337;DHT22;14992;50.844;4.418;2023-12-20T10:32:25;8.30;99.90
22337;DHT22;14992;50.844;4.418;2023-12-20T10:34:55;8.40;99.90
22337;DHT22;14992;50.844;4.418;2023-12-20T10:37:24;8.30;99.90
22337;DHT22;14992;50.844;4.418;2023-12-20T10:39:54;8.30;99.90
22337;DHT22;14992;50.844;4.418;2023-12-20T10:42:26;8.40;99.90
22337;DHT22;14992;50.844;4.418;2023-12-20T10:44:56;8.40;99.90
22337;DHT22;14992;50.844;4.418;2023-12-20T10:47:28;8.60;99.90
22337;DHT22;14992;50.844;4.418;2023-12-20T10:49:59;8.70;99.90
22337;DHT22;14992;50.844;4.418;2023-12-20T10:52:32;8.80;99.90
22337;DHT22;14992;50.844;4.418;2023-12-20T10:55:03;8.70;99.90
22337;DHT22;14992;50.844;4.418;2023-12-20T10:57:33;8.70;99.90
22337;DHT22;14992;50.844;4.418;2023-12-20T11:00:03;8.70;99.90
22337;DHT22;14992;50.844;4.418;2023-12-20T11:02:39;8.70;99.90
22337;DHT22;14992;50.844;4.418;2023-12-20T11:05:18;8.80;99.90
22337;DHT22;14992;50.844;4.418;2023-12-20T11:07:52;8.90;99.90
22337;DHT22;14992;50.844;4.418;2023-12-20T11:10:29;9.00;99.90
22337;DHT22;14992;50.844;4.418;2023-12-20T11:13:10;9.10;99.90
22337;DHT22;14992;50.844;4.418;2023-12-20T11:15:42;9.10;99.90
22337;DHT22;14992;50.844;4.418;2023-12-20T11:18:13;9.10;99.90
22337;DHT22;14992;50.844;4.418;2023-12-20T11:20:42;9.00;99.90
22337;DHT22;14992;50.844;4.418;2023-12-20T11:23:11;9.10;99.90
22337;DHT22;14992;50.844;4.418;2023-12-20T11:25:51;8.90;99.90
22337;DHT22;14992;50.844;4.418;2023-12-20T11:28:21;8.90;99.90
22337;DHT22;14992;50.844;4.418;2023-12-20T11:30:52;8.90;99.90
22337;DHT22;14992;50.844;4.418;2023-12-20T11:33:24;8.80;99.90
22337;DHT22;14992;50.844;4.418;2023-12-20T11:35:57;8.70;99.90
22337;DHT22;14992;50.844;4.418;2023-12-20T11:38:27;8.70;99.90
22337;DHT22;14992;50.844;4.418;2023-12-20T11:41:05;8.60;99.90
22337;DHT22;14992;50.844;4.418;2023-12-20T11:43:38;8.70;99.90
22337;DHT22;14992;50.844;4.418;2023-12-20T11:46:08;8.80;99.90
22337;DHT22;14992;50.844;4.418;2023-12-20T11:48:39;8.80;99.90
22337;DHT22;14992;50.844;4.418;2023-12-20T11:51:12;8.80;99.90
22337;DHT22;14992;50.844;4.418;2023-12-20T11:53:41;8.80;99.90
22337;DHT22;14992;50.844;4.418;2023-12-20T11:56:11;8.80;99.90
22337;DHT22;14992;50.844;4.418;2023-12-20T11:58:40;8.80;99.90
22337;DHT22;14992;50.844;4.418;2023-12-20T12:01:09;8.90;99.90
22337;DHT22;14992;50.844;4.418;2023-12-20T12:03:39;9.00;99.90
22337;DHT22;14992;50.844;4.418;2023-12-20T12:06:10;9.00;99.90
22337;DHT22;14992;50.844;4.418;2023-12-20T12:08:40;9.20;99.90
22337;DHT22;14992;50.844;4.418;2023-12-20T12:11:10;9.20;99.90
22337;DHT22;14992;50.844;4.418;2023-12-20T12:13:39;9.30;99.90
22337;DHT22;14992;50.844;4.418;2023-12-20T12:16:07;9.30;99.90
22337;DHT22;14992;50.844;4.418;2023-12-20T12:18:38;9.40;99.90
22337;DHT22;14992;50.844;4.418;2023-12-20T12:21:09;9.50;99.90
22337;DHT22;14992;50.844;4.418;2023-12-20T12:23:45;9.40;99.90
22337;DHT22;14992;50.844;4.418;2023-12-20T12:26:14;9.30;99.90
22337;DHT22;14992;50.844;4.418;2023-12-20T12:28:43;9.30;99.90
22337;DHT22;14992;50.844;4.418;2023-12-20T12:31:13;9.30;99.90
22337;DHT22;14992;50.844;4.418;2023-12-20T12:33:46;9.20;99.90
22337;DHT22;14992;50.844;4.418;2023-12-20T12:36:16;9.30;99.90
22337;DHT22;14992;50.844;4.418;2023-12-20T12:38:45;9.30;99.90
22337;DHT22;14992;50.844;4.418;2023-12-20T12:41:14;9.30;99.90
22337;DHT22;14992;50.844;4.418;2023-12-20T12:43:44;9.20;99.90
22337;DHT22;14992;50.844;4.418;2023-12-20T12:46:12;9.20;99.90
22337;DHT22;14992;50.844;4.418;2023-12-20T12:48:42;9.10;99.90
22337;DHT22;14992;50.844;4.418;2023-12-20T12:51:15;9.00;99.90
22337;DHT22;14992;50.844;4.418;2023-12-20T12:53:44;9.10;99.90
22337;DHT22;14992;50.844;4.418;2023-12-20T12:56:13;9.20;99.90
22337;DHT22;14992;50.844;4.418;2023-12-20T12:58:42;9.20;99.90
22337;DHT22;14992;50.844;4.418;2023-12-20T13:01:11;9.20;99.90
22337;DHT22;14992;50.844;4.418;2023-12-20T13:03:40;9.20;99.90
22337;DHT22;14992;50.844;4.418;2023-12-20T13:06:09;9.30;99.90
22337;DHT22;14992;50.844;4.418;2023-12-20T13:08:39;9.40;99.90
22337;DHT22;14992;50.844;4.418;2023-12-20T13:11:09;9.40;99.90
22337;DHT22;14992;50.844;4.418;2023-12-20T13:13:38;9.30;99.90
22337;DHT22;14992;50.844;4.418;2023-12-20T13:16:07;9.10;99.90
22337;DHT22;14992;50.844;4.418;2023-12-20T13:18:36;9.10;99.90
22337;DHT22;14992;50.844;4.418;2023-12-20T13:21:05;9.20;99.90
22337;DHT22;14992;50.844;4.418;2023-12-20T13:23:34;9.10;99.90
22337;DHT22;14992;50.844;4.418;2023-12-20T13:26:08;9.20;99.90
22337;DHT22;14992;50.844;4.418;2023-12-20T13:28:37;9.20;99.90
22337;DHT22;14992;50.844;4.418;2023-12-20T13:31:06;9.30;99.90
22337;DHT22;14992;50.844;4.418;2023-12-20T13:33:35;9.40;99.90
22337;DHT22;14992;50.844;4.418;2023-12-20T13:36:05;9.60;99.90
22337;DHT22;14992;50.844;4.418;2023-12-20T13:38:34;9.60;99.90
22337;DHT22;14992;50.844;4.418;2023-12-20T13:41:03;9.70;99.90
22337;DHT22;14992;50.844;4.418;2023-12-20T13:43:34;9.70;99.90
22337;DHT22;14992;50.844;4.418;2023-12-20T13:46:03;9.70;99.90
22337;DHT22;14992;50.844;4.418;2023-12-20T13:48:33;9.70;99.90
22337;DHT22;14992;50.844;4.418;2023-12-20T13:51:01;9.60;99.90
22337;DHT22;14992;50.844;4.418;2023-12-20T13:53:30;9.60;99.90
22337;DHT22;14992;50.844;4.418;2023-12-20T13:55:59;9.70;99.90
22337;DHT22;14992;50.844;4.418;2023-12-20T13:58:28;9.70;99.90
22337;DHT22;14992;50.844;4.418;2023-12-20T14:00:59;9.60;99.90
22337;DHT22;14992;50.844;4.418;2023-12-20T14:03:28;9.60;99.90
22337;DHT22;14992;50.844;4.418;2023-12-20T14:05:58;9.60;99.90
22337;DHT22;14992;50.844;4.418;2023-12-20T14:08:27;9.60;99.90
22337;DHT22;14992;50.844;4.418;2023-12-20T14:10:56;9.70;99.90
22337;DHT22;14992;50.844;4.418;2023-12-20T14:13:25;9.70;99.90
22337;DHT22;14992;50.844;4.418;2023-12-20T14:15:54;9.80;99.90
22337;DHT22;14992;50.844;4.418;2023-12-20T14:18:24;9.80;99.90
22337;DHT22;14992;50.844;4.418;2023-12-20T14:20:53;9.80;99.90
22337;DHT22;14992;50.844;4.418;2023-12-20T14:23:22;9.80;99.90
22337;DHT22;14992;50.844;4.418;2023-12-20T14:25:51;9.80;99.90
22337;DHT22;14992;50.844;4.418;2023-12-20T14:28:20;9.70;99.90
22337;DHT22;14992;50.844;4.418;2023-12-20T14:30:49;9.80;99.90
22337;DHT22;14992;50.844;4.418;2023-12-20T14:33:18;9.80;99.90
22337;DHT22;14992;50.844;4.418;2023-12-20T14:35:50;9.80;99.90
22337;DHT22;14992;50.844;4.418;2023-12-20T14:38:19;9.90;99.90
22337;DHT22;14992;50.844;4.418;2023-12-20T14:40:49;10.00;99.90
22337;DHT22;14992;50.844;4.418;2023-12-20T14:43:18;9.90;99.90
22337;DHT22;14992;50.844;4.418;2023-12-20T14:45:49;10.00;99.90
22337;DHT22;14992;50.844;4.418;2023-12-20T14:48:21;10.00;99.90
22337;DHT22;14992;50.844;4.418;2023-12-20T14:50:52;10.00;99.90
22337;DHT22;14992;50.844;4.418;2023-12-20T14:53:21;10.10;99.90
22337;DHT22;14992;50.844;4.418;2023-12-20T14:55:50;10.10;99.90
22337;DHT22;14992;50.844;4.418;2023-12-20T14:58:19;10.00;99.90
22337;DHT22;14992;50.844;4.418;2023-12-20T15:00:48;10.00;99.90
22337;DHT22;14992;50.844;4.418;2023-12-20T15:03:16;10.10;99.90
22337;DHT22;14992;50.844;4.418;2023-12-20T15:05:46;10.10;99.90
22337;DHT22;14992;50.844;4.418;2023-12-20T15:08:16;10.10;99.90
22337;DHT22;14992;50.844;4.418;2023-12-20T15:10:45;10.10;99.90
22337;DHT22;14992;50.844;4.418;2023-12-20T15:13:14;10.10;99.90
22337;DHT22;14992;50.844;4.418;2023-12-20T15:15:43;10.10;99.90
22337;DHT22;14992;50.844;4.418;2023-12-20T15:18:14;10.00;99.90
22337;DHT22;14992;50.844;4.418;2023-12-20T15:20:43;9.90;99.90
22337;DHT22;14992;50.844;4.418;2023-12-20T15:23:12;9.90;99.90
22337;DHT22;14992;50.844;4.418;2023-12-20T15:25:42;9.90;99.90
22337;DHT22;14992;50.844;4.418;2023-12-20T15:28:11;9.90;99.90
22337;DHT22;14992;50.844;4.418;2023-12-20T15:30:40;10.00;99.90
22337;DHT22;14992;50.844;4.418;2023-12-20T15:33:09;10.00;99.90
22337;DHT22;14992;50.844;4.418;2023-12-20T15:35:38;10.00;99.90
22337;DHT22;14992;50.844;4.418;2023-12-20T15:38:06;10.00;99.90
22337;DHT22;14992;50.844;4.418;2023-12-20T15:40:35;10.00;99.90
22337;DHT22;14992;50.844;4.418;2023-12-20T15:43:06;10.00;99.90
22337;DHT22;14992;50.844;4.418;2023-12-20T15:45:35;9.90;99.90
22337;DHT22;14992;50.844;4.418;2023-12-20T15:48:04;10.00;99.90
22337;DHT22;14992;50.844;4.418;2023-12-20T15:50:33;9.90;99.90
22337;DHT22;14992;50.844;4.418;2023-12-20T15:53:03;10.00;99.90
22337;DHT22;14992;50.844;4.418;2023-12-20T15:55:31;10.00;99.90
22337;DHT22;14992;50.844;4.418;2023-12-20T15:58:00;9.90;99.90
22337;DHT22;14992;50.844;4.418;2023-12-20T16:00:31;9.90;99.90